Saint Mary Of The Woods, Indiana
Current Conditions -  °F | °C
As of 6:53 AM on Sunday 21 Dec 2014 (Local Time) from KHUF Reporting Station
Haze Haze  
Wind Chill: 18°   Ceiling: 2600
Heat Index: 24°   Visibility: 6mi
Dew Point: 21°   Wind: 5mph
Humidity: 88%   Direction: 100°E
Pressure: 30.29"   Gusts: NA
Location:  39.51°N, 87.46°W
Report Text: KHUF 211153Z 10004KT 6SM BR BKN026 M04/M06 A3029 RMK AO2 SLP262 I6000 T10441061 11039 21056 55002
Loading
Personal Weather Stations






























Interactive Weather Map New forecast layout! Learn more

10-Day Weather Forecast

Advertisements
Track Severe Weather on mobile